Surface observations / UK / EGMC

Quebec | Canada | USA | France | UK | Europe | Elsewhere

Display: Info & Location for EGMC | Help decoding METAR

EGMC SOUTHEND-ON-SEA -- UK
Raw surface observations for station EGMC
EGMC 052150Z 26007KT 9999 BKN037 08/00 Q1037=
EGMC 052120Z 26007KT 9999 BKN037 08/00 Q1037=
EGMC 052050Z 26007KT 9999 BKN039 09/01 Q1037=
EGMC 051720Z 29006KT 9999 SCT043 10/02 Q1037=
EGMC 051650Z 28007KT 9999 BKN040 10/02 Q1037=
EGMC 051420Z 26010KT 9999 SCT038 10/02 Q1037=
EGMC 051350Z 26012KT 9999 FEW039 11/01 Q1037=
EGMC 051320Z 25009KT 220V280 9999 FEW037 11/01 Q1038=
EGMC 051250Z 22011KT CAVOK 10/01 Q1038=
EGMC 051220Z 24010KT 210V280 CAVOK 10/00 Q1038=
EGMC 051150Z 25011KT CAVOK 10/M00 Q1038=
EGMC 051120Z 25011KT CAVOK 09/00 Q1039=
EGMC 051050Z 26011KT CAVOK 09/00 Q1039=
EGMC 051020Z 26009KT CAVOK 08/M00 Q1039=
EGMC 050950Z 23007KT CAVOK 07/01 Q1039=
EGMC 050920Z 26009KT CAVOK 06/M00 Q1039=
EGMC 050850Z 26007KT CAVOK 06/00 Q1039=
EGMC 050820Z 26006KT CAVOK 04/M00 Q1039=
EGMC 050750Z 25005KT CAVOK 03/M01 Q1039=
EGMC 050720Z 25004KT CAVOK 02/M01 Q1039=
EGMC 050650Z 25004KT CAVOK 01/M02 Q1039=
EGMC 050620Z 25004KT CAVOK 01/M02 Q1039=
EGMC 050550Z 24004KT CAVOK M00/M03 Q1039=
EGMC 050520Z 24004KT CAVOK 00/M02 Q1039=
EGMC 050450Z 23006KT CAVOK 00/M03 Q1039=
EGMC 050350Z 28004KT CAVOK 02/M01 Q1039=
EGMC 050250Z 28004KT CAVOK 02/M01 Q1038=
EGMC 050150Z 29004KT CAVOK 02/M01 Q1038=
EGMC 050050Z 30006KT CAVOK 03/M00 Q1038=
EGMC 042250Z 30006KT CAVOK 04/M01 Q1037=
EGMC 042220Z 28006KT CAVOK 04/M01 Q1037=